Port Jefferson, NY (11777)

5:32 PM EST on December 18, 2014 (GMT -0500)
Canyon Creek | Change Station
CLOSE
Current Station
Personal Weather Station
Location: Port Jefferson, NY
Elevation: 233 ft
Nearby Weather Stations

Elev 233 ft 40.94 °N, 73.06 °W | Updated 5 seconds ago

Partly Cloudy
Partly Cloudy
38.3 °F
Feels Like 32 °F
N
8.2
Wind Variable Wind from NNE
Gusts 12.1 mph

Today
High -- | Low -- °F
--% Chance of Precip.
Yesterday
High -- | Low -- °F
Precip. -- in
7:11 AM 4:25 PM
Waning Crescent, 12% visible
Pressure 29.93 in
Visibility 10.0 miles
Clouds Mostly Cloudy 3900 ft
Windchill 32 °F
Dew Point 26 °F
Humidity 62%
Rainfall 0.00 in
Snow Depth Not available.
UV 0 out of 12
Pollen .10 out of 12
Air Quality Not available.
Flu Activity Not available.
METAR KISP 182156Z 30010KT 10SM BKN039 04/M03 A2993 RMK AO2 SLP134 T00391033

More Conditions Fewer Conditions

Pressure 29.93 in
Visibility 10.0 miles
Clouds Mostly Cloudy 3900 ft
Windchill 32 °F
Dew Point 26 °F
Humidity 62%
Rainfall 0.00 in
Snow Depth Not available.
UV 0 out of 12
Pollen .10 out of 12
Air Quality Not available.
Flu Activity Not available.
METAR KISP 182156Z 30010KT 10SM BKN039 04/M03 A2993 RMK AO2 SLP134 T00391033

More Conditions Fewer Conditions

10-Day Weather Forecast

Almanac

Astronomy

Dec. 18, 2014 Rise Set
Actual Time
Civil Twilight
Nautical Twilight
Astronomical Twilight
Moon
Length of Visible Light
Length of Day
Tomorrow will be .
, % of the Moon is Illuminated

Today's Extremes

State Highs State Lows

Community

WunderPhotos

Upload Photos

1,779,010 photos uploaded!

WunderBlogs® & News

Nearby

Air Quality

  Air Quality AQ Index Pollutant
Not available.

Snow Depth

Station Depth Elevation

Earthquake Activity

City Distance Mag. Time & Date
Minimum magnitude displayed is 2.5.

Coastal Water Temperatures

Place Temperature

Nearby Weather Stations